createdAt,value
2017-10-11T00:00:10.314Z,3.43
2017-10-11T00:00:50.748Z,3.43
2017-10-11T00:01:31.182Z,3.43
2017-10-11T00:02:11.661Z,3.43
2017-10-11T00:02:52.140Z,3.43
2017-10-11T00:03:32.581Z,3.43
2017-10-11T00:04:13.114Z,0
2017-10-11T00:04:53.560Z,3.43
2017-10-11T00:05:34.085Z,3.43
2017-10-11T00:06:14.560Z,3.43
2017-10-11T00:06:55.182Z,3.43
2017-10-11T00:07:35.654Z,3.43
2017-10-11T00:08:16.119Z,0
2017-10-11T00:08:56.553Z,0
2017-10-11T00:09:37.033Z,0
2017-10-11T00:10:18.300Z,0
2017-10-11T00:10:59.276Z,3.43
2017-10-11T00:11:39.744Z,3.43
2017-10-11T00:12:20.279Z,3.43
2017-10-11T00:13:00.714Z,3.43
2017-10-11T00:13:41.181Z,3.43
2017-10-11T00:14:21.667Z,3.43
2017-10-11T00:15:02.141Z,3.43
2017-10-11T00:15:42.631Z,0
2017-10-11T00:16:23.751Z,3.43
2017-10-11T00:17:04.186Z,3.43
2017-10-11T00:17:44.680Z,3.43
2017-10-11T00:18:25.135Z,3.43
2017-10-11T00:19:05.645Z,3.43
2017-10-11T00:19:46.061Z,3.43
2017-10-11T00:20:26.530Z,3.43
2017-10-11T00:21:06.974Z,25
2017-10-11T00:21:47.398Z,0
2017-10-11T00:22:27.871Z,0.39
2017-10-11T00:23:08.460Z,0
2017-10-11T00:23:49.453Z,0.39
2017-10-11T00:24:29.993Z,0.39
2017-10-11T00:25:10.585Z,3.43
2017-10-11T00:25:51.044Z,0.39
2017-10-11T00:26:31.511Z,3.43
2017-10-11T00:27:11.948Z,3.43
2017-10-11T00:27:52.427Z,3.43
2017-10-11T00:28:32.888Z,1.56
2017-10-11T00:29:13.433Z,6.25
2017-10-11T00:29:53.881Z,3.43
2017-10-11T00:30:34.348Z,3.43
2017-10-11T00:31:14.851Z,0.78
2017-10-11T00:31:55.340Z,3.43
2017-10-11T00:32:35.854Z,3.43
2017-10-11T00:33:16.323Z,6.25
2017-10-11T00:33:56.815Z,50
2017-10-11T00:34:37.295Z,3.43
2017-10-11T00:35:17.719Z,3.43
2017-10-11T00:35:58.189Z,3.43
2017-10-11T00:36:38.768Z,100
2017-10-11T00:37:19.239Z,3.43
2017-10-11T00:37:59.735Z,0
2017-10-11T00:38:40.189Z,100
2017-10-11T00:39:20.676Z,3.43
2017-10-11T00:40:01.130Z,3.43
2017-10-11T00:40:41.549Z,3.43
2017-10-11T00:41:21.962Z,3.43
2017-10-11T00:42:02.480Z,3.43
2017-10-11T00:42:43.003Z,3.43
2017-10-11T00:43:23.463Z,3.43
2017-10-11T00:44:03.916Z,3.43
2017-10-11T00:44:44.455Z,3.43
2017-10-11T00:45:24.909Z,3.43
2017-10-11T00:46:05.415Z,3.43
2017-10-11T00:46:45.854Z,3.43
2017-10-11T00:47:26.368Z,3.43
2017-10-11T00:48:07.590Z,3.43
2017-10-11T00:48:47.999Z,3.43
2017-10-11T00:49:28.631Z,3.43
2017-10-11T00:50:09.143Z,3.43
2017-10-11T00:50:49.605Z,3.43
2017-10-11T00:51:30.090Z,3.43
2017-10-11T00:52:10.583Z,0
2017-10-11T00:52:51.012Z,0
2017-10-11T00:53:31.489Z,0
2017-10-11T00:54:12.046Z,3.43
2017-10-11T00:54:52.515Z,3.43
2017-10-11T00:55:32.945Z,3.43
2017-10-11T00:56:13.476Z,3.43
2017-10-11T00:56:53.992Z,3.43
2017-10-11T00:57:34.434Z,3.43
2017-10-11T00:58:14.895Z,3.43
2017-10-11T00:58:55.365Z,3.43
2017-10-11T00:59:35.823Z,3.43
2017-10-11T01:00:16.446Z,0
2017-10-11T01:00:56.762Z,0
2017-10-11T01:01:37.289Z,0
2017-10-11T01:02:17.795Z,3.43
2017-10-11T01:02:58.224Z,0
2017-10-11T01:03:38.882Z,0.19
2017-10-11T01:04:19.325Z,0
2017-10-11T01:04:59.803Z,0
2017-10-11T01:05:40.247Z,50
2017-10-11T01:06:20.713Z,0.19
2017-10-11T01:07:01.185Z,3.43
2017-10-11T01:07:41.606Z,3.43
2017-10-11T01:08:22.171Z,0.78
2017-10-11T01:09:02.813Z,0
2017-10-11T01:09:43.254Z,0
2017-10-11T01:10:23.699Z,0
2017-10-11T01:11:04.191Z,3.43
2017-10-11T01:11:44.652Z,0
2017-10-11T01:12:25.154Z,0
2017-10-11T01:13:05.634Z,3.43
2017-10-11T01:13:46.089Z,0
2017-10-11T01:14:26.542Z,3.43
2017-10-11T01:15:06.991Z,3.43
2017-10-11T01:15:47.446Z,3.43
2017-10-11T01:16:27.901Z,3.43
2017-10-11T01:17:08.438Z,0
2017-10-11T01:17:48.877Z,0
2017-10-11T01:18:29.438Z,100
2017-10-11T01:19:09.906Z,0
2017-10-11T01:19:50.389Z,3.43
2017-10-11T01:20:30.803Z,0
2017-10-11T01:21:11.392Z,0
2017-10-11T01:21:51.738Z,3.43
2017-10-11T01:22:32.187Z,0
2017-10-11T01:23:12.665Z,0
2017-10-11T01:23:53.100Z,3.43
2017-10-11T01:24:33.617Z,0
2017-10-11T01:25:14.084Z,0
2017-10-11T01:25:54.528Z,0
2017-10-11T01:26:34.955Z,0
2017-10-11T01:27:15.423Z,0
2017-10-11T01:27:55.871Z,0
2017-10-11T01:28:36.333Z,0
2017-10-11T01:29:16.834Z,100
2017-10-11T01:29:57.320Z,0
2017-10-11T01:30:37.761Z,3.43
2017-10-11T01:31:18.275Z,0
2017-10-11T01:31:58.772Z,3.43
2017-10-11T01:32:39.255Z,0
2017-10-11T01:33:19.761Z,3.43
2017-10-11T01:34:00.210Z,0
2017-10-11T01:34:40.619Z,0.02
2017-10-11T01:35:21.112Z,3.43
2017-10-11T01:36:01.564Z,0
2017-10-11T01:36:42.793Z,0
2017-10-11T01:37:23.240Z,99.99
2017-10-11T01:38:03.680Z,0
2017-10-11T01:38:44.928Z,3.43
2017-10-11T01:39:26.263Z,0
2017-10-11T01:40:06.901Z,0
2017-10-11T01:40:47.171Z,0
2017-10-11T01:41:27.642Z,0
2017-10-11T01:42:08.079Z,0
2017-10-11T01:42:48.627Z,100
2017-10-11T01:43:29.161Z,3.43
2017-10-11T01:44:09.565Z,0
2017-10-11T01:44:49.997Z,3.43
2017-10-11T01:45:30.476Z,1.56
2017-10-11T01:46:10.937Z,3.43
2017-10-11T01:46:51.439Z,3.43
2017-10-11T01:47:31.875Z,3.43
2017-10-11T01:48:12.434Z,3.43
2017-10-11T01:48:52.989Z,0
2017-10-11T01:49:33.505Z,3.43
2017-10-11T01:50:13.912Z,0
2017-10-11T01:50:54.394Z,3.43
2017-10-11T01:51:34.805Z,0
2017-10-11T01:52:15.283Z,12.5
2017-10-11T01:52:55.787Z,6.25
2017-10-11T01:53:36.273Z,0
2017-10-11T01:54:16.851Z,0
2017-10-11T01:54:57.254Z,0.05
2017-10-11T01:55:37.673Z,0
2017-10-11T01:56:18.132Z,0
2017-10-11T01:56:58.595Z,50
2017-10-11T01:57:39.090Z,3.43
2017-10-11T01:58:19.602Z,3.43
2017-10-11T01:58:59.942Z,0
2017-10-11T01:59:40.402Z,0
2017-10-11T02:01:59.894Z,0
2017-10-11T02:02:40.126Z,0
2017-10-11T02:03:20.580Z,0
2017-10-11T02:04:01.003Z,0.39
2017-10-11T02:04:41.455Z,0
2017-10-11T02:05:21.990Z,3.43
2017-10-11T02:06:02.440Z,0
2017-10-11T02:06:42.993Z,0
2017-10-11T02:07:23.460Z,100
2017-10-11T02:08:03.889Z,0
2017-10-11T02:08:44.411Z,0
2017-10-11T02:09:24.855Z,0
2017-10-11T02:10:05.944Z,0
2017-10-11T02:10:46.440Z,0
2017-10-11T02:11:26.962Z,0
2017-10-11T02:12:07.416Z,0
2017-10-11T02:12:47.908Z,0.02
2017-10-11T02:13:28.433Z,0
2017-10-11T02:14:08.968Z,0
2017-10-11T02:14:49.354Z,0
2017-10-11T02:15:29.815Z,0
2017-10-11T02:16:10.893Z,0
2017-10-11T02:16:51.382Z,3.43
2017-10-11T02:17:31.777Z,0
2017-10-11T02:18:12.299Z,0
2017-10-11T02:18:52.692Z,0
2017-10-11T02:19:33.150Z,0
2017-10-11T02:20:13.635Z,0
2017-10-11T02:20:54.104Z,0
2017-10-11T02:21:34.487Z,0
2017-10-11T02:22:14.981Z,3.43
2017-10-11T02:22:55.620Z,99.43
2017-10-11T02:23:36.008Z,0
2017-10-11T02:24:16.490Z,3.43
2017-10-11T02:24:56.873Z,0
2017-10-11T02:25:37.430Z,50
2017-10-11T02:26:17.871Z,0
2017-10-11T02:26:58.352Z,0
2017-10-11T02:27:38.859Z,0
2017-10-11T02:28:19.291Z,0
2017-10-11T02:28:59.720Z,0
2017-10-11T02:29:40.205Z,3.43
2017-10-11T02:30:20.635Z,0
2017-10-11T02:31:01.063Z,0
2017-10-11T02:31:41.514Z,0
2017-10-11T02:32:21.964Z,0
2017-10-11T02:33:02.532Z,99.99
2017-10-11T02:33:43.038Z,0
2017-10-11T02:34:23.409Z,0
2017-10-11T02:35:03.859Z,0
2017-10-11T02:35:44.274Z,0
2017-10-11T02:36:24.803Z,0
2017-10-11T02:37:05.261Z,0.01
2017-10-11T02:37:45.698Z,0
2017-10-11T02:38:26.106Z,0
2017-10-11T02:39:06.557Z,50
2017-10-11T02:39:47.002Z,0
2017-10-11T02:40:27.440Z,0
2017-10-11T02:41:07.907Z,0
2017-10-11T02:41:48.360Z,0
2017-10-11T02:42:28.751Z,0
2017-10-11T02:43:09.235Z,0.02
2017-10-11T02:43:49.705Z,0
2017-10-11T02:44:30.199Z,0
2017-10-11T02:45:10.674Z,3.43
2017-10-11T02:45:51.097Z,0
2017-10-11T02:46:31.588Z,0
2017-10-11T02:47:12.116Z,0
2017-10-11T02:47:52.552Z,0
2017-10-11T02:48:33.015Z,0
2017-10-11T02:49:13.407Z,0
2017-10-11T02:49:53.867Z,0.05
2017-10-11T02:50:34.335Z,3.43
2017-10-11T02:51:15.516Z,0
2017-10-11T02:51:55.967Z,100
2017-10-11T02:52:36.450Z,3.43
2017-10-11T02:53:16.979Z,3.43
2017-10-11T02:53:57.437Z,99.99
2017-10-11T02:54:37.903Z,6.25
2017-10-11T02:55:18.433Z,3.43
2017-10-11T02:55:58.892Z,0
2017-10-11T02:56:39.439Z,3.43
2017-10-11T02:57:19.850Z,3.43
2017-10-11T02:58:00.318Z,3.43
2017-10-11T02:58:40.802Z,3.43
2017-10-11T02:59:21.265Z,0
2017-10-11T03:00:01.711Z,0
2017-10-11T03:00:42.214Z,0
2017-10-11T03:01:22.676Z,0
2017-10-11T03:02:03.134Z,0.39
2017-10-11T03:02:43.577Z,0
2017-10-11T03:03:24.054Z,0
2017-10-11T03:04:04.484Z,0
2017-10-11T03:04:45.064Z,0
2017-10-11T03:05:25.502Z,0
2017-10-11T03:06:05.995Z,0
2017-10-11T03:06:46.463Z,0
2017-10-11T03:07:26.921Z,0
2017-10-11T03:08:07.495Z,0
2017-10-11T03:08:48.023Z,0
2017-10-11T03:09:28.671Z,0
2017-10-11T03:10:09.157Z,3.43
2017-10-11T03:12:02.522Z,0
2017-10-11T03:12:42.950Z,0.01
2017-10-11T03:13:23.432Z,0
2017-10-11T03:14:03.941Z,3.43
2017-10-11T03:14:44.603Z,0
2017-10-11T03:15:25.052Z,3.43
2017-10-11T03:16:05.453Z,3.43
2017-10-11T03:16:45.932Z,0
2017-10-11T03:17:26.427Z,0
2017-10-11T03:18:06.851Z,0
2017-10-11T03:18:47.506Z,0
2017-10-11T03:19:28.015Z,0
2017-10-11T03:20:08.603Z,0
2017-10-11T03:20:48.967Z,0
2017-10-11T03:21:29.454Z,0
2017-10-11T03:22:10.077Z,0
2017-10-11T03:22:50.469Z,3.43
2017-10-11T03:23:30.923Z,0
2017-10-11T03:24:11.379Z,0
2017-10-11T03:24:51.842Z,0
2017-10-11T03:25:32.334Z,3.43
2017-10-11T03:26:12.795Z,0
2017-10-11T03:26:53.245Z,0
2017-10-11T03:27:33.748Z,0
2017-10-11T03:28:14.219Z,0
2017-10-11T03:28:54.680Z,0
2017-10-11T03:29:36.637Z,0
2017-10-11T03:30:17.138Z,0
2017-10-11T03:30:57.580Z,0
2017-10-11T03:31:38.609Z,0
2017-10-11T03:32:19.067Z,3.43
2017-10-11T03:32:59.506Z,0
2017-10-11T03:33:39.964Z,3.43
2017-10-11T03:34:20.326Z,0
2017-10-11T03:35:00.839Z,3.43
2017-10-11T03:35:41.266Z,0
2017-10-11T03:36:21.758Z,3.43
2017-10-11T03:37:02.202Z,0
2017-10-11T03:37:42.678Z,3.43
2017-10-11T03:38:23.123Z,0
2017-10-11T03:39:03.539Z,3.43
2017-10-11T03:39:44.003Z,0
2017-10-11T03:40:24.493Z,0
2017-10-11T03:41:04.953Z,0
2017-10-11T03:41:45.455Z,0
2017-10-11T03:42:25.879Z,3.43
2017-10-11T03:43:06.371Z,0
2017-10-11T03:43:46.890Z,0
2017-10-11T03:44:27.276Z,3.43
2017-10-11T03:45:07.717Z,0.05
2017-10-11T03:45:48.228Z,0
2017-10-11T03:46:28.793Z,0
2017-10-11T03:47:09.239Z,0.01
2017-10-11T03:47:49.756Z,3.43
2017-10-11T03:48:30.156Z,0
2017-10-11T03:49:10.676Z,3.43
2017-10-11T03:49:51.146Z,0
2017-10-11T03:50:31.600Z,3.43
2017-10-11T03:51:12.064Z,0
2017-10-11T03:51:53.178Z,25
2017-10-11T03:52:33.625Z,50
2017-10-11T03:53:14.072Z,3.43
2017-10-11T03:53:54.483Z,0
2017-10-11T03:54:34.928Z,0
2017-10-11T03:55:15.390Z,3.43
2017-10-11T03:55:55.898Z,0
2017-10-11T03:56:36.311Z,0
2017-10-11T03:57:16.741Z,3.43
2017-10-11T03:57:57.266Z,0
2017-10-11T03:58:37.714Z,0
2017-10-11T03:59:18.162Z,3.43
2017-10-11T03:59:58.577Z,0
2017-10-11T04:00:39.016Z,0
2017-10-11T04:01:19.535Z,3.43
2017-10-11T04:01:59.985Z,0
2017-10-11T04:02:40.496Z,0
2017-10-11T04:03:20.914Z,0
2017-10-11T04:04:01.385Z,0
2017-10-11T04:04:41.862Z,0
2017-10-11T04:05:22.254Z,0
2017-10-11T04:06:02.753Z,0
2017-10-11T04:06:43.233Z,0
2017-10-11T04:07:23.670Z,0
2017-10-11T04:08:04.151Z,0
2017-10-11T04:08:44.632Z,3.43
2017-10-11T04:09:25.063Z,3.43
2017-10-11T04:10:06.445Z,0
2017-10-11T04:12:25.325Z,0
2017-10-11T04:13:05.662Z,0
2017-10-11T04:13:46.109Z,0
2017-10-11T04:14:26.610Z,0.39
2017-10-11T04:15:07.019Z,0
2017-10-11T04:15:47.494Z,0
2017-10-11T04:16:27.965Z,0
2017-10-11T04:17:08.456Z,0
2017-10-11T04:17:48.927Z,50
2017-10-11T04:18:29.353Z,0
2017-10-11T04:19:09.821Z,0
2017-10-11T04:19:50.238Z,3.43
2017-10-11T04:20:31.710Z,3.43
2017-10-11T04:21:12.166Z,3.43
2017-10-11T04:21:52.729Z,0
2017-10-11T04:22:33.212Z,0
2017-10-11T04:23:13.786Z,0
2017-10-11T04:23:54.240Z,0
2017-10-11T04:24:34.715Z,3.43
2017-10-11T04:25:15.149Z,3.43
2017-10-11T04:25:56.207Z,0
2017-10-11T04:26:36.671Z,0
2017-10-11T04:27:17.141Z,0
2017-10-11T04:27:57.728Z,0
2017-10-11T04:28:38.261Z,3.43
2017-10-11T04:29:18.656Z,0
2017-10-11T04:29:59.201Z,0
2017-10-11T04:30:39.679Z,0
2017-10-11T04:31:20.106Z,0
2017-10-11T04:32:00.551Z,0
2017-10-11T04:32:40.980Z,25
2017-10-11T04:33:21.557Z,3.43
2017-10-11T04:34:02.058Z,0
2017-10-11T04:34:42.549Z,0
2017-10-11T04:35:23.072Z,0
2017-10-11T04:36:03.512Z,0
2017-10-11T04:36:44.048Z,3.43
2017-10-11T04:37:24.493Z,0
2017-10-11T04:38:04.933Z,0
2017-10-11T04:38:45.473Z,25
2017-10-11T04:39:26.100Z,0
2017-10-11T04:40:06.350Z,0
2017-10-11T04:40:46.855Z,0
2017-10-11T04:41:27.320Z,0
2017-10-11T04:42:07.794Z,3.43
2017-10-11T04:42:48.262Z,99.99
2017-10-11T04:43:28.923Z,99.99
2017-10-11T04:44:09.402Z,99.99
2017-10-11T04:44:49.813Z,99.99
2017-10-11T04:45:30.351Z,99.99
2017-10-11T04:46:10.776Z,99.99
2017-10-11T04:46:52.586Z,99.99
2017-10-11T04:47:33.167Z,99.99
2017-10-11T04:48:13.751Z,99.99
2017-10-11T04:48:54.104Z,99.99
2017-10-11T04:49:34.579Z,99.99
2017-10-11T04:50:15.048Z,99.99
2017-10-11T04:50:55.490Z,99.99
2017-10-11T04:51:35.957Z,99.99
2017-10-11T04:52:16.432Z,99.99
2017-10-11T04:52:56.887Z,99.99
2017-10-11T04:53:37.288Z,99.99
2017-10-11T04:54:17.797Z,99.99
2017-10-11T04:54:58.360Z,99.99
2017-10-11T04:55:38.823Z,99.99
2017-10-11T04:56:19.444Z,99.99
2017-10-11T04:56:59.930Z,99.99
2017-10-11T04:57:40.409Z,99.99
2017-10-11T04:58:20.881Z,99.99
2017-10-11T04:59:01.336Z,99.99
2017-10-11T04:59:41.912Z,99.99
2017-10-11T05:00:22.275Z,99.99
2017-10-11T05:01:02.871Z,99.99
2017-10-11T05:01:43.961Z,99.99
2017-10-11T05:02:24.519Z,99.99
2017-10-11T05:03:04.944Z,99.99
2017-10-11T05:03:45.392Z,99.99
2017-10-11T05:04:25.968Z,0
2017-10-11T05:05:06.399Z,99.99
2017-10-11T05:05:46.820Z,99.99
2017-10-11T05:06:27.384Z,99.99
2017-10-11T05:07:07.867Z,99.99
2017-10-11T05:07:48.352Z,99.99
2017-10-11T05:08:28.849Z,99.99
2017-10-11T05:09:09.269Z,99.99
2017-10-11T05:09:49.928Z,99.99
2017-10-11T05:10:30.577Z,99.99
2017-10-11T05:11:11.135Z,99.99
2017-10-11T05:11:51.533Z,99.99
2017-10-11T05:12:31.956Z,99.99
2017-10-11T05:13:12.419Z,99.99
2017-10-11T05:13:52.923Z,99.99
2017-10-11T05:14:33.368Z,99.99
2017-10-11T05:15:14.045Z,99.99
2017-10-11T05:15:54.425Z,99.99
2017-10-11T05:16:34.896Z,99.99
2017-10-11T05:17:15.404Z,99.99
2017-10-11T05:17:55.823Z,99.99
2017-10-11T05:18:36.270Z,99.99
2017-10-11T05:19:16.711Z,99.99
2017-10-11T05:19:57.171Z,99.99
2017-10-11T05:20:37.779Z,3.43
2017-10-11T05:21:18.531Z,3.43
2017-10-11T05:21:59.382Z,0
2017-10-11T05:22:40.017Z,0
2017-10-11T05:23:20.832Z,0
2017-10-11T05:24:01.583Z,0.19
2017-10-11T05:24:42.305Z,0
2017-10-11T05:25:22.940Z,0
2017-10-11T05:26:03.598Z,0
2017-10-11T05:26:44.309Z,50
2017-10-11T05:27:24.950Z,3.43
2017-10-11T05:28:05.389Z,3.43
2017-10-11T05:28:46.006Z,0
2017-10-11T05:29:26.381Z,0
2017-10-11T05:30:06.949Z,99.99
2017-10-11T05:30:47.638Z,0
2017-10-11T05:31:28.370Z,3.43
2017-10-11T05:32:09.090Z,0
2017-10-11T05:32:49.590Z,3.43
2017-10-11T05:33:30.128Z,25
2017-10-11T05:34:10.517Z,0
2017-10-11T05:34:50.974Z,3.43
2017-10-11T05:35:31.596Z,0
2017-10-11T05:36:12.225Z,0
2017-10-11T05:36:53.425Z,0
2017-10-11T05:37:34.091Z,0.39
2017-10-11T05:38:14.784Z,0
2017-10-11T05:38:55.394Z,0
2017-10-11T05:39:36.014Z,0
2017-10-11T05:40:16.664Z,0
2017-10-11T05:40:57.321Z,0
2017-10-11T05:41:37.952Z,0
2017-10-11T05:42:18.615Z,0
2017-10-11T05:42:59.253Z,3.43
2017-10-11T05:43:39.941Z,3.12
2017-10-11T05:44:20.645Z,0
2017-10-11T05:45:01.325Z,3.43
2017-10-11T05:45:41.994Z,3.43
2017-10-11T05:46:22.567Z,3.43
2017-10-11T05:47:03.073Z,0
2017-10-11T05:47:43.481Z,3.43
2017-10-11T05:48:23.957Z,0
2017-10-11T05:49:04.460Z,99.2
2017-10-11T05:49:44.913Z,0
2017-10-11T05:50:25.381Z,0
2017-10-11T05:51:05.931Z,0
2017-10-11T05:51:46.681Z,3.43
2017-10-11T05:52:27.335Z,0
2017-10-11T05:53:08.224Z,0
2017-10-11T05:53:48.696Z,0
2017-10-11T05:54:29.350Z,0
2017-10-11T05:55:09.995Z,0
2017-10-11T05:55:50.581Z,99.99
2017-10-11T05:56:31.241Z,0
2017-10-11T05:57:11.973Z,0
2017-10-11T05:57:52.578Z,0
2017-10-11T05:58:33.169Z,0
2017-10-11T05:59:13.794Z,50
2017-10-11T05:59:54.430Z,0
2017-10-11T06:00:35.039Z,0
2017-10-11T06:01:15.681Z,0
2017-10-11T06:01:56.325Z,0
2017-10-11T06:02:36.998Z,0
2017-10-11T06:03:17.737Z,0
2017-10-11T06:03:58.417Z,0
2017-10-11T06:04:39.048Z,0
2017-10-11T06:05:19.775Z,0
2017-10-11T06:06:00.475Z,0
2017-10-11T06:06:41.191Z,0
2017-10-11T06:07:21.856Z,0
2017-10-11T06:08:02.489Z,0
2017-10-11T06:08:43.303Z,0
2017-10-11T06:09:23.970Z,0.1
2017-10-11T06:10:04.682Z,0
2017-10-11T06:10:45.339Z,0
2017-10-11T06:11:26.004Z,50
2017-10-11T06:12:06.564Z,3.43
2017-10-11T06:12:47.215Z,3.43
2017-10-11T06:13:27.731Z,0
2017-10-11T06:14:08.374Z,3.43
2017-10-11T06:14:49.023Z,0
2017-10-11T06:15:29.682Z,0
2017-10-11T06:16:10.395Z,0
2017-10-11T06:16:51.042Z,3.43
2017-10-11T06:17:31.703Z,0
2017-10-11T06:18:12.332Z,3.43
2017-10-11T06:18:53.080Z,0
2017-10-11T06:19:33.653Z,0
2017-10-11T06:20:14.297Z,0
2017-10-11T06:20:54.926Z,0
2017-10-11T06:21:35.557Z,0
2017-10-11T06:22:16.086Z,3.43
2017-10-11T06:22:56.774Z,0
2017-10-11T06:23:37.370Z,0
2017-10-11T06:24:18.021Z,0.39
2017-10-11T06:24:58.645Z,0
2017-10-11T06:25:39.518Z,0
2017-10-11T06:26:20.088Z,0
2017-10-11T06:27:00.772Z,0
2017-10-11T06:27:41.376Z,0
2017-10-11T06:28:21.941Z,0
2017-10-11T06:29:02.646Z,0
2017-10-11T06:29:43.371Z,0
2017-10-11T06:30:24.019Z,97.33
2017-10-11T06:31:04.837Z,0
2017-10-11T06:31:45.493Z,0
2017-10-11T06:32:26.180Z,3.43
2017-10-11T06:33:06.850Z,0
2017-10-11T06:33:47.522Z,0
2017-10-11T06:34:28.098Z,0
2017-10-11T06:35:08.836Z,0
2017-10-11T06:35:49.498Z,0
2017-10-11T06:36:30.058Z,0
2017-10-11T06:37:10.754Z,0
2017-10-11T06:37:51.447Z,0
2017-10-11T06:38:32.031Z,0
2017-10-11T06:39:12.700Z,0
2017-10-11T06:39:53.284Z,0
2017-10-11T06:40:33.902Z,0
2017-10-11T06:41:14.524Z,0
2017-10-11T06:41:55.231Z,0
2017-10-11T06:42:35.832Z,0
2017-10-11T06:43:16.586Z,0
2017-10-11T06:43:57.248Z,0
2017-10-11T06:44:37.799Z,0
2017-10-11T06:45:18.462Z,94.98
2017-10-11T06:45:59.090Z,94.93
2017-10-11T06:46:39.759Z,94.74
2017-10-11T06:47:20.380Z,34.23
2017-10-11T06:48:01.029Z,94.64
2017-10-11T06:48:42.607Z,0
2017-10-11T06:49:23.070Z,0
2017-10-11T06:50:03.655Z,0
2017-10-11T06:50:44.603Z,0
2017-10-11T06:51:25.170Z,94.02
2017-10-11T06:52:05.832Z,94.74
2017-10-11T06:52:47.189Z,93.78
2017-10-11T06:53:27.617Z,94.26
2017-10-11T06:54:08.190Z,93.78
2017-10-11T06:54:48.726Z,93.3
2017-10-11T06:55:29.123Z,93.3
2017-10-11T06:56:09.611Z,93.54
2017-10-11T06:56:50.162Z,94.02
2017-10-11T06:57:30.678Z,93.3
2017-10-11T06:58:11.144Z,93.83
2017-10-11T06:58:51.581Z,93.35
2017-10-11T06:59:32.149Z,93.21
2017-10-11T07:00:12.540Z,93.78
2017-10-11T07:00:53.052Z,93.69
2017-10-11T07:01:33.469Z,94.17
2017-10-11T07:02:14.051Z,93.98
2017-10-11T07:02:54.598Z,93.88
2017-10-11T07:03:35.041Z,93.73
2017-10-11T07:04:15.691Z,93.93
2017-10-11T07:04:56.334Z,93.73
2017-10-11T07:05:36.877Z,93.59
2017-10-11T07:06:17.558Z,93.59
2017-10-11T07:06:58.210Z,93.73
2017-10-11T07:07:38.729Z,94.02
2017-10-11T07:08:19.502Z,94.21
2017-10-11T07:09:00.158Z,93.73
2017-10-11T07:09:40.681Z,93.83
2017-10-11T07:10:21.110Z,93.35
2017-10-11T07:11:01.987Z,93.16
2017-10-11T07:11:42.539Z,93.44
2017-10-11T07:12:22.941Z,93.54
2017-10-11T07:13:03.473Z,93.35
2017-10-11T07:13:43.891Z,93.44
2017-10-11T07:14:24.391Z,93.16
2017-10-11T07:15:04.886Z,93.16
2017-10-11T07:15:45.390Z,93.26
2017-10-11T07:16:25.903Z,92.77
2017-10-11T07:17:06.363Z,92.77
2017-10-11T07:17:46.841Z,92.44
2017-10-11T07:18:27.462Z,92.3
2017-10-11T07:19:08.022Z,92.54
2017-10-11T07:19:48.509Z,34.53
2017-10-11T07:20:28.964Z,92.63
2017-10-11T07:21:09.486Z,92.54
2017-10-11T07:21:49.882Z,92.54
2017-10-11T07:22:30.437Z,92.34
2017-10-11T07:23:10.840Z,0
2017-10-11T07:23:51.372Z,92.82
2017-10-11T07:24:31.992Z,3.43
2017-10-11T07:25:12.924Z,0.02
2017-10-11T07:25:53.935Z,0
2017-10-11T07:26:34.465Z,0
2017-10-11T07:27:14.955Z,0
2017-10-11T07:27:55.592Z,0
2017-10-11T07:28:36.043Z,3.12
2017-10-11T07:29:16.544Z,3.43
2017-10-11T07:29:57.000Z,0
2017-10-11T07:30:37.511Z,0
2017-10-11T07:31:17.960Z,3.43
2017-10-11T07:31:58.411Z,3.43
2017-10-11T07:32:38.921Z,0
2017-10-11T07:33:19.431Z,12.5
2017-10-11T07:33:59.991Z,0
2017-10-11T07:34:40.549Z,0
2017-10-11T07:35:21.103Z,0
2017-10-11T07:36:01.562Z,12.5
2017-10-11T07:36:42.147Z,0
2017-10-11T07:37:23.311Z,0
2017-10-11T07:38:03.729Z,0
2017-10-11T07:38:44.224Z,3.43
2017-10-11T07:39:24.666Z,0.1
2017-10-11T07:40:05.168Z,3.43
2017-10-11T07:40:45.600Z,0
2017-10-11T07:41:26.338Z,3.43
2017-10-11T07:42:06.807Z,0
2017-10-11T07:42:47.297Z,3.43
2017-10-11T07:43:27.769Z,3.43
2017-10-11T07:44:08.262Z,0.39
2017-10-11T07:44:48.803Z,0
2017-10-11T07:45:29.297Z,0.05
2017-10-11T07:46:10.351Z,86.43
2017-10-11T07:46:51.514Z,0.39
2017-10-11T07:47:31.967Z,1.56
2017-10-11T07:48:12.437Z,3.43
2017-10-11T07:48:52.878Z,0
2017-10-11T07:49:33.550Z,0.39
2017-10-11T07:50:14.031Z,87.71
2017-10-11T07:50:54.525Z,87.3
2017-10-11T07:51:34.995Z,87.05
2017-10-11T07:52:15.427Z,88.49
2017-10-11T07:52:55.859Z,87.44
2017-10-11T07:53:36.436Z,87.25
2017-10-11T07:54:16.950Z,87.92
2017-10-11T07:54:57.449Z,88.59
2017-10-11T07:55:37.911Z,87.35
2017-10-11T07:56:18.354Z,88.25
2017-10-11T07:56:58.831Z,87.39
2017-10-11T07:57:39.343Z,86.33
2017-10-11T07:58:19.836Z,85.95
2017-10-11T07:59:00.315Z,85.75
2017-10-11T07:59:40.838Z,86.24
2017-10-11T08:00:21.238Z,86.47
2017-10-11T08:01:01.745Z,84.89
2017-10-11T08:01:42.394Z,85.57
2017-10-11T08:02:22.899Z,0.01
2017-10-11T08:03:03.320Z,0
2017-10-11T08:03:43.958Z,25
2017-10-11T08:04:24.292Z,0
2017-10-11T08:05:04.847Z,0
2017-10-11T08:05:45.453Z,3.43
2017-10-11T08:06:25.884Z,0
2017-10-11T08:07:06.473Z,0
2017-10-11T08:07:46.948Z,0.39
2017-10-11T08:08:27.390Z,3.43
2017-10-11T08:09:08.985Z,0.39
2017-10-11T08:09:49.470Z,0
2017-10-11T08:10:29.976Z,0
2017-10-11T08:11:10.675Z,3.43
2017-10-11T08:11:51.126Z,0
2017-10-11T08:12:31.667Z,3.43
2017-10-11T08:13:12.166Z,3.43
2017-10-11T08:13:52.660Z,0
2017-10-11T08:14:33.863Z,0.39
2017-10-11T08:15:14.340Z,3.43
2017-10-11T08:15:54.880Z,0.39
2017-10-11T08:16:35.349Z,0.39
2017-10-11T08:17:15.795Z,0
2017-10-11T08:17:56.899Z,3.43
2017-10-11T08:18:37.466Z,0
2017-10-11T08:19:17.942Z,0.39
2017-10-11T08:19:58.470Z,3.43
2017-10-11T08:20:39.014Z,0
2017-10-11T08:21:19.449Z,3.43
2017-10-11T08:21:59.925Z,0
2017-10-11T08:22:40.444Z,0
2017-10-11T08:23:20.990Z,3.43
2017-10-11T08:24:01.491Z,3.43
2017-10-11T08:24:41.981Z,3.43
2017-10-11T08:25:22.426Z,0.05
2017-10-11T08:26:02.988Z,0
2017-10-11T08:26:43.497Z,0
2017-10-11T08:27:24.049Z,0
2017-10-11T08:28:04.619Z,0
2017-10-11T08:28:45.093Z,0
2017-10-11T08:29:25.826Z,0
2017-10-11T08:30:06.136Z,0
2017-10-11T08:30:46.668Z,0
2017-10-11T08:31:27.181Z,0
2017-10-11T08:32:07.576Z,0
2017-10-11T08:32:48.197Z,0
2017-10-11T08:33:28.700Z,0
2017-10-11T08:34:09.458Z,0
2017-10-11T08:34:49.661Z,0
2017-10-11T08:35:30.165Z,0.39
2017-10-11T08:36:10.727Z,0
2017-10-11T08:36:51.362Z,0
2017-10-11T08:37:31.862Z,6.25
2017-10-11T08:38:12.422Z,0
2017-10-11T08:38:52.987Z,0
2017-10-11T08:39:33.424Z,3.43
2017-10-11T08:40:13.947Z,0
2017-10-11T08:40:54.447Z,0
2017-10-11T08:41:34.975Z,0
2017-10-11T08:42:15.531Z,78.44
2017-10-11T08:42:55.995Z,76.17
2017-10-11T08:43:36.562Z,0
2017-10-11T08:44:17.094Z,0
2017-10-11T08:44:57.561Z,3.43
2017-10-11T08:45:38.606Z,0
2017-10-11T08:46:19.167Z,0
2017-10-11T08:46:59.688Z,0
2017-10-11T08:47:40.156Z,3.43
2017-10-11T08:48:20.625Z,76.42
2017-10-11T08:49:01.193Z,0
2017-10-11T08:49:41.899Z,0
2017-10-11T08:50:22.503Z,0.39
2017-10-11T08:51:03.112Z,76.09
2017-10-11T08:51:43.677Z,0
2017-10-11T08:52:24.176Z,76.13
2017-10-11T08:53:04.858Z,75.74
2017-10-11T08:53:45.476Z,75.78
2017-10-11T08:54:26.039Z,75.1
2017-10-11T08:55:06.564Z,75.1
2017-10-11T08:55:47.178Z,75.49
2017-10-11T08:56:27.593Z,76.75
2017-10-11T08:57:08.085Z,75.78
2017-10-11T08:57:48.561Z,75.2
2017-10-11T08:58:29.024Z,74.43
2017-10-11T08:59:09.623Z,75.88
2017-10-11T08:59:50.121Z,0
2017-10-11T09:00:30.636Z,0
2017-10-11T09:01:11.547Z,73.95
2017-10-11T09:01:52.020Z,0
2017-10-11T09:02:32.568Z,0
2017-10-11T09:03:13.042Z,74.36
2017-10-11T09:03:53.592Z,0
2017-10-11T09:04:34.249Z,74.88
2017-10-11T09:05:14.803Z,75.36
2017-10-11T09:05:55.352Z,75.07
2017-10-11T09:06:35.813Z,74.78
2017-10-11T09:07:16.349Z,75.84
2017-10-11T09:07:56.863Z,75.9
2017-10-11T09:08:37.371Z,76.61
2017-10-11T09:09:17.920Z,75.55
2017-10-11T09:09:58.444Z,74.78
2017-10-11T09:10:38.904Z,0
2017-10-11T09:11:19.494Z,37.07
2017-10-11T09:12:00.019Z,76.28
2017-10-11T09:12:40.491Z,76.23
2017-10-11T09:13:21.060Z,0
2017-10-11T09:14:01.595Z,3.43
2017-10-11T09:16:19.518Z,3.43
2017-10-11T09:17:00.109Z,0
2017-10-11T09:17:40.570Z,0
2017-10-11T09:18:21.132Z,0.01
2017-10-11T09:19:01.779Z,3.43
2017-10-11T09:19:42.275Z,0
2017-10-11T09:20:22.712Z,0
2017-10-11T09:21:03.296Z,75.59
2017-10-11T09:21:43.845Z,0
2017-10-11T09:22:24.300Z,0
2017-10-11T09:23:04.738Z,43.76
2017-10-11T09:23:46.022Z,42.91
2017-10-11T09:24:26.488Z,76.07
2017-10-11T09:25:07.000Z,76.49
2017-10-11T09:25:47.522Z,0
2017-10-11T09:26:28.054Z,77.64
2017-10-11T09:27:08.659Z,44.18
2017-10-11T09:27:49.178Z,77.73
2017-10-11T09:28:29.593Z,0.02
2017-10-11T09:29:10.102Z,0
2017-10-11T09:29:50.594Z,0